Terminal Aerodrome Forecast
Issued by NWS

Home | Current Version | Previous Version | Text Only | Print | Product List | Glossary On
Versions: 1 2 3 4 5 6 7 8 9 10 11 12 13 14 15 16
000
FTUS43 KMQT 201957 AAB
TAFIWD
TAF AMD
KIWD 201957Z 2020/2118 20010G18KT P6SM BKN015
     FM202100 25008G17KT P6SM VCSH BKN015
     FM202300 29006KT P6SM SCT090
     FM210900 00000KT 4SM BR FEW200
     FM211300 13004KT P6SM FEW200=

USA.gov is the U.S. government's official web portal to all federal, state and local government web resources and services.